sensor_id;sensor_type;location;lat;lon;timestamp;temperature;humidity
10312;DHT22;5201;48.776;9.128;2023-07-31T00:00:27;18.20;99.90
10312;DHT22;5201;48.776;9.128;2023-07-31T00:02:52;18.20;99.90
10312;DHT22;5201;48.776;9.128;2023-07-31T00:05:18;18.00;99.90
10312;DHT22;5201;48.776;9.128;2023-07-31T00:07:44;17.80;99.90
10312;DHT22;5201;48.776;9.128;2023-07-31T00:10:09;17.80;99.90
10312;DHT22;5201;48.776;9.128;2023-07-31T00:12:35;17.60;99.90
10312;DHT22;5201;48.776;9.128;2023-07-31T00:15:01;17.40;99.90
10312;DHT22;5201;48.776;9.128;2023-07-31T00:17:28;17.30;99.90
10312;DHT22;5201;48.776;9.128;2023-07-31T00:19:53;17.20;99.90
10312;DHT22;5201;48.776;9.128;2023-07-31T00:22:19;17.20;99.90
10312;DHT22;5201;48.776;9.128;2023-07-31T00:24:45;17.00;99.90
10312;DHT22;5201;48.776;9.128;2023-07-31T00:27:10;16.90;99.90
10312;DHT22;5201;48.776;9.128;2023-07-31T00:29:36;16.80;99.90
10312;DHT22;5201;48.776;9.128;2023-07-31T00:32:02;16.60;99.90
10312;DHT22;5201;48.776;9.128;2023-07-31T00:34:27;16.50;99.90
10312;DHT22;5201;48.776;9.128;2023-07-31T00:36:53;16.50;99.90
10312;DHT22;5201;48.776;9.128;2023-07-31T00:39:19;16.40;99.90
10312;DHT22;5201;48.776;9.128;2023-07-31T00:41:44;16.60;99.90
10312;DHT22;5201;48.776;9.128;2023-07-31T00:44:10;16.80;99.90
10312;DHT22;5201;48.776;9.128;2023-07-31T00:46:36;16.90;99.90
10312;DHT22;5201;48.776;9.128;2023-07-31T00:49:02;17.00;99.90
10312;DHT22;5201;48.776;9.128;2023-07-31T00:51:29;17.10;99.90
10312;DHT22;5201;48.776;9.128;2023-07-31T00:53:55;17.20;99.90
10312;DHT22;5201;48.776;9.128;2023-07-31T00:56:22;17.30;99.90
10312;DHT22;5201;48.776;9.128;2023-07-31T00:58:49;17.30;99.90
10312;DHT22;5201;48.776;9.128;2023-07-31T01:01:14;17.30;99.90
10312;DHT22;5201;48.776;9.128;2023-07-31T01:03:40;17.50;99.90
10312;DHT22;5201;48.776;9.128;2023-07-31T01:06:15;17.30;99.90
10312;DHT22;5201;48.776;9.128;2023-07-31T01:11:44;17.30;99.90
10312;DHT22;5201;48.776;9.128;2023-07-31T01:14:12;17.30;99.90
10312;DHT22;5201;48.776;9.128;2023-07-31T01:16:37;17.30;99.90
10312;DHT22;5201;48.776;9.128;2023-07-31T01:19:03;17.30;99.90
10312;DHT22;5201;48.776;9.128;2023-07-31T01:26:49;17.20;99.90
10312;DHT22;5201;48.776;9.128;2023-07-31T01:29:23;17.20;99.90
10312;DHT22;5201;48.776;9.128;2023-07-31T01:31:53;17.70;99.90
10312;DHT22;5201;48.776;9.128;2023-07-31T01:34:21;17.50;99.90
10312;DHT22;5201;48.776;9.128;2023-07-31T01:36:47;17.20;99.90
10312;DHT22;5201;48.776;9.128;2023-07-31T01:39:13;17.20;99.90
10312;DHT22;5201;48.776;9.128;2023-07-31T01:41:41;17.20;99.90
10312;DHT22;5201;48.776;9.128;2023-07-31T01:44:06;17.50;99.90
10312;DHT22;5201;48.776;9.128;2023-07-31T01:46:32;17.00;99.90
10312;DHT22;5201;48.776;9.128;2023-07-31T01:48:58;17.00;99.90
10312;DHT22;5201;48.776;9.128;2023-07-31T01:51:23;16.90;99.90
10312;DHT22;5201;48.776;9.128;2023-07-31T01:53:49;16.80;99.90
10312;DHT22;5201;48.776;9.128;2023-07-31T01:56:14;16.80;99.90
10312;DHT22;5201;48.776;9.128;2023-07-31T01:58:40;16.90;99.90
10312;DHT22;5201;48.776;9.128;2023-07-31T02:01:06;17.20;99.90
10312;DHT22;5201;48.776;9.128;2023-07-31T02:03:32;17.30;99.90
10312;DHT22;5201;48.776;9.128;2023-07-31T02:05:58;17.00;99.90
10312;DHT22;5201;48.776;9.128;2023-07-31T02:08:23;17.10;99.90
10312;DHT22;5201;48.776;9.128;2023-07-31T02:10:49;17.10;99.90
10312;DHT22;5201;48.776;9.128;2023-07-31T02:13:15;17.10;99.90
10312;DHT22;5201;48.776;9.128;2023-07-31T02:15:40;17.00;99.90
10312;DHT22;5201;48.776;9.128;2023-07-31T02:18:06;17.00;99.90
10312;DHT22;5201;48.776;9.128;2023-07-31T02:20:35;16.90;99.90
10312;DHT22;5201;48.776;9.128;2023-07-31T02:23:00;16.90;99.90
10312;DHT22;5201;48.776;9.128;2023-07-31T02:25:26;17.00;99.90
10312;DHT22;5201;48.776;9.128;2023-07-31T02:27:52;17.00;99.90
10312;DHT22;5201;48.776;9.128;2023-07-31T02:30:17;16.90;99.90
10312;DHT22;5201;48.776;9.128;2023-07-31T02:32:43;16.90;99.90
10312;DHT22;5201;48.776;9.128;2023-07-31T02:35:08;17.00;99.90
10312;DHT22;5201;48.776;9.128;2023-07-31T02:37:34;17.00;99.90
10312;DHT22;5201;48.776;9.128;2023-07-31T02:40:00;17.10;99.90
10312;DHT22;5201;48.776;9.128;2023-07-31T02:42:25;17.00;99.90
10312;DHT22;5201;48.776;9.128;2023-07-31T02:44:51;16.80;99.90
10312;DHT22;5201;48.776;9.128;2023-07-31T02:47:21;16.80;99.90
10312;DHT22;5201;48.776;9.128;2023-07-31T02:49:47;16.60;99.90
10312;DHT22;5201;48.776;9.128;2023-07-31T02:52:12;16.40;99.90
10312;DHT22;5201;48.776;9.128;2023-07-31T02:54:38;16.20;99.90
10312;DHT22;5201;48.776;9.128;2023-07-31T02:57:04;16.10;99.90
10312;DHT22;5201;48.776;9.128;2023-07-31T02:59:30;16.10;99.90
10312;DHT22;5201;48.776;9.128;2023-07-31T03:01:55;16.20;99.90
10312;DHT22;5201;48.776;9.128;2023-07-31T03:04:21;16.10;99.90
10312;DHT22;5201;48.776;9.128;2023-07-31T03:06:46;16.10;99.90
10312;DHT22;5201;48.776;9.128;2023-07-31T03:09:12;16.10;99.90
10312;DHT22;5201;48.776;9.128;2023-07-31T03:11:37;16.10;99.90
10312;DHT22;5201;48.776;9.128;2023-07-31T03:14:03;16.20;99.90
10312;DHT22;5201;48.776;9.128;2023-07-31T03:16:28;16.30;99.90
10312;DHT22;5201;48.776;9.128;2023-07-31T03:18:54;16.40;99.90
10312;DHT22;5201;48.776;9.128;2023-07-31T03:21:20;16.50;99.90
10312;DHT22;5201;48.776;9.128;2023-07-31T03:23:45;16.60;99.90
10312;DHT22;5201;48.776;9.128;2023-07-31T03:26:11;16.60;99.90
10312;DHT22;5201;48.776;9.128;2023-07-31T03:28:37;16.50;99.90
10312;DHT22;5201;48.776;9.128;2023-07-31T03:31:02;16.60;99.90
10312;DHT22;5201;48.776;9.128;2023-07-31T03:33:28;16.60;99.90
10312;DHT22;5201;48.776;9.128;2023-07-31T03:35:53;16.60;99.90
10312;DHT22;5201;48.776;9.128;2023-07-31T03:38:19;16.60;99.90
10312;DHT22;5201;48.776;9.128;2023-07-31T03:40:45;16.60;99.90
10312;DHT22;5201;48.776;9.128;2023-07-31T03:43:11;16.60;99.90
10312;DHT22;5201;48.776;9.128;2023-07-31T03:45:37;16.80;99.90
10312;DHT22;5201;48.776;9.128;2023-07-31T03:48:04;16.70;99.90
10312;DHT22;5201;48.776;9.128;2023-07-31T03:50:29;16.80;99.90
10312;DHT22;5201;48.776;9.128;2023-07-31T03:52:55;16.70;99.90
10312;DHT22;5201;48.776;9.128;2023-07-31T03:55:20;16.70;99.90
10312;DHT22;5201;48.776;9.128;2023-07-31T03:57:47;16.80;99.90
10312;DHT22;5201;48.776;9.128;2023-07-31T04:00:13;16.80;99.90
10312;DHT22;5201;48.776;9.128;2023-07-31T04:02:39;16.70;99.90
10312;DHT22;5201;48.776;9.128;2023-07-31T04:05:05;16.70;99.90
10312;DHT22;5201;48.776;9.128;2023-07-31T04:07:30;16.80;99.90
10312;DHT22;5201;48.776;9.128;2023-07-31T04:09:57;16.90;99.90
10312;DHT22;5201;48.776;9.128;2023-07-31T04:12:23;16.90;99.90
10312;DHT22;5201;48.776;9.128;2023-07-31T04:14:49;17.00;99.90
10312;DHT22;5201;48.776;9.128;2023-07-31T04:17:14;17.00;99.90
10312;DHT22;5201;48.776;9.128;2023-07-31T04:19:40;17.10;99.90
10312;DHT22;5201;48.776;9.128;2023-07-31T04:22:06;17.20;99.90
10312;DHT22;5201;48.776;9.128;2023-07-31T04:24:31;17.30;99.90
10312;DHT22;5201;48.776;9.128;2023-07-31T04:26:57;17.30;99.90
10312;DHT22;5201;48.776;9.128;2023-07-31T04:29:23;17.30;99.90
10312;DHT22;5201;48.776;9.128;2023-07-31T04:31:49;17.30;99.90
10312;DHT22;5201;48.776;9.128;2023-07-31T04:34:15;17.30;99.90
10312;DHT22;5201;48.776;9.128;2023-07-31T04:36:40;17.40;99.90
10312;DHT22;5201;48.776;9.128;2023-07-31T04:39:06;17.50;99.90
10312;DHT22;5201;48.776;9.128;2023-07-31T04:41:32;17.60;99.90
10312;DHT22;5201;48.776;9.128;2023-07-31T04:43:57;17.50;99.90
10312;DHT22;5201;48.776;9.128;2023-07-31T04:46:23;17.60;99.90
10312;DHT22;5201;48.776;9.128;2023-07-31T04:48:48;17.60;99.90
10312;DHT22;5201;48.776;9.128;2023-07-31T04:51:14;17.60;99.90
10312;DHT22;5201;48.776;9.128;2023-07-31T04:53:40;17.70;99.90
10312;DHT22;5201;48.776;9.128;2023-07-31T04:56:05;17.60;99.90
10312;DHT22;5201;48.776;9.128;2023-07-31T04:58:31;17.50;99.90
10312;DHT22;5201;48.776;9.128;2023-07-31T05:00:56;17.50;99.90
10312;DHT22;5201;48.776;9.128;2023-07-31T05:03:22;17.50;99.90
10312;DHT22;5201;48.776;9.128;2023-07-31T05:05:48;17.50;99.90
10312;DHT22;5201;48.776;9.128;2023-07-31T05:08:14;17.50;99.90
10312;DHT22;5201;48.776;9.128;2023-07-31T05:10:39;17.60;99.90
10312;DHT22;5201;48.776;9.128;2023-07-31T05:13:05;17.70;99.90
10312;DHT22;5201;48.776;9.128;2023-07-31T05:15:31;17.70;99.90
10312;DHT22;5201;48.776;9.128;2023-07-31T05:17:56;17.70;99.90
10312;DHT22;5201;48.776;9.128;2023-07-31T05:20:22;17.60;99.90
10312;DHT22;5201;48.776;9.128;2023-07-31T05:22:48;17.60;99.90
10312;DHT22;5201;48.776;9.128;2023-07-31T05:25:13;17.60;99.90
10312;DHT22;5201;48.776;9.128;2023-07-31T05:27:40;17.60;99.90
10312;DHT22;5201;48.776;9.128;2023-07-31T05:30:06;17.70;99.90
10312;DHT22;5201;48.776;9.128;2023-07-31T05:32:32;17.70;99.90
10312;DHT22;5201;48.776;9.128;2023-07-31T05:34:57;17.70;99.90
10312;DHT22;5201;48.776;9.128;2023-07-31T05:37:23;17.80;99.90
10312;DHT22;5201;48.776;9.128;2023-07-31T05:39:49;17.80;99.90
10312;DHT22;5201;48.776;9.128;2023-07-31T05:42:14;18.00;99.90
10312;DHT22;5201;48.776;9.128;2023-07-31T05:44:40;18.10;99.90
10312;DHT22;5201;48.776;9.128;2023-07-31T05:47:06;18.10;99.90
10312;DHT22;5201;48.776;9.128;2023-07-31T05:49:31;18.20;99.90
10312;DHT22;5201;48.776;9.128;2023-07-31T05:51:57;18.30;99.90
10312;DHT22;5201;48.776;9.128;2023-07-31T05:54:22;18.30;99.90
10312;DHT22;5201;48.776;9.128;2023-07-31T05:56:48;18.40;99.90
10312;DHT22;5201;48.776;9.128;2023-07-31T05:59:14;18.40;99.90
10312;DHT22;5201;48.776;9.128;2023-07-31T06:01:39;18.30;99.90
10312;DHT22;5201;48.776;9.128;2023-07-31T06:04:05;18.70;99.90
10312;DHT22;5201;48.776;9.128;2023-07-31T06:06:30;18.40;99.90
10312;DHT22;5201;48.776;9.128;2023-07-31T06:08:56;18.50;99.90
10312;DHT22;5201;48.776;9.128;2023-07-31T06:11:22;18.60;99.90
10312;DHT22;5201;48.776;9.128;2023-07-31T06:13:48;18.60;99.90
10312;DHT22;5201;48.776;9.128;2023-07-31T06:16:15;18.60;99.90
10312;DHT22;5201;48.776;9.128;2023-07-31T06:18:41;18.80;99.90
10312;DHT22;5201;48.776;9.128;2023-07-31T06:21:07;19.00;99.90
10312;DHT22;5201;48.776;9.128;2023-07-31T06:23:33;19.30;99.90
10312;DHT22;5201;48.776;9.128;2023-07-31T06:25:59;19.50;99.90
10312;DHT22;5201;48.776;9.128;2023-07-31T06:28:31;19.40;99.90
10312;DHT22;5201;48.776;9.128;2023-07-31T06:30:57;19.50;99.90
10312;DHT22;5201;48.776;9.128;2023-07-31T06:33:24;19.70;99.90
10312;DHT22;5201;48.776;9.128;2023-07-31T06:35:49;20.00;99.90
10312;DHT22;5201;48.776;9.128;2023-07-31T06:38:15;20.10;99.90
10312;DHT22;5201;48.776;9.128;2023-07-31T06:40:41;20.10;99.90
10312;DHT22;5201;48.776;9.128;2023-07-31T06:43:06;20.00;99.90
10312;DHT22;5201;48.776;9.128;2023-07-31T06:45:36;19.90;99.90
10312;DHT22;5201;48.776;9.128;2023-07-31T06:48:02;20.00;99.90
10312;DHT22;5201;48.776;9.128;2023-07-31T06:50:31;20.00;99.90
10312;DHT22;5201;48.776;9.128;2023-07-31T06:52:57;20.10;99.90
10312;DHT22;5201;48.776;9.128;2023-07-31T06:55:23;20.10;99.90
10312;DHT22;5201;48.776;9.128;2023-07-31T06:57:50;20.00;99.90
10312;DHT22;5201;48.776;9.128;2023-07-31T07:00:16;20.00;99.90
10312;DHT22;5201;48.776;9.128;2023-07-31T07:02:42;20.00;99.90
10312;DHT22;5201;48.776;9.128;2023-07-31T07:05:08;20.00;99.90
10312;DHT22;5201;48.776;9.128;2023-07-31T07:07:34;19.80;99.90
10312;DHT22;5201;48.776;9.128;2023-07-31T07:10:00;19.70;99.90
10312;DHT22;5201;48.776;9.128;2023-07-31T07:12:29;19.90;99.90
10312;DHT22;5201;48.776;9.128;2023-07-31T07:14:55;20.00;99.90
10312;DHT22;5201;48.776;9.128;2023-07-31T07:17:21;20.10;99.90
10312;DHT22;5201;48.776;9.128;2023-07-31T07:19:48;20.30;99.90
10312;DHT22;5201;48.776;9.128;2023-07-31T07:22:14;20.40;99.90
10312;DHT22;5201;48.776;9.128;2023-07-31T07:24:39;20.60;99.90
10312;DHT22;5201;48.776;9.128;2023-07-31T07:27:05;20.90;99.90
10312;DHT22;5201;48.776;9.128;2023-07-31T07:29:31;21.00;99.90
10312;DHT22;5201;48.776;9.128;2023-07-31T07:31:57;21.00;99.90
10312;DHT22;5201;48.776;9.128;2023-07-31T07:34:25;20.60;99.90
10312;DHT22;5201;48.776;9.128;2023-07-31T07:36:51;20.30;99.90
10312;DHT22;5201;48.776;9.128;2023-07-31T07:39:17;19.90;99.90
10312;DHT22;5201;48.776;9.128;2023-07-31T07:41:42;19.90;99.90
10312;DHT22;5201;48.776;9.128;2023-07-31T07:44:08;19.90;99.90
10312;DHT22;5201;48.776;9.128;2023-07-31T07:46:34;20.10;99.90
10312;DHT22;5201;48.776;9.128;2023-07-31T07:48:59;20.20;99.90
10312;DHT22;5201;48.776;9.128;2023-07-31T07:51:25;20.20;99.90
10312;DHT22;5201;48.776;9.128;2023-07-31T07:53:51;20.30;99.90
10312;DHT22;5201;48.776;9.128;2023-07-31T07:56:16;20.60;99.90
10312;DHT22;5201;48.776;9.128;2023-07-31T07:58:42;20.50;99.90
10312;DHT22;5201;48.776;9.128;2023-07-31T08:01:07;20.60;99.90
10312;DHT22;5201;48.776;9.128;2023-07-31T08:03:33;20.80;99.90
10312;DHT22;5201;48.776;9.128;2023-07-31T08:05:59;20.90;99.90
10312;DHT22;5201;48.776;9.128;2023-07-31T08:08:25;20.70;99.90
10312;DHT22;5201;48.776;9.128;2023-07-31T08:10:50;20.70;99.90
10312;DHT22;5201;48.776;9.128;2023-07-31T08:13:16;20.70;99.90
10312;DHT22;5201;48.776;9.128;2023-07-31T08:15:42;20.90;99.90
10312;DHT22;5201;48.776;9.128;2023-07-31T08:18:11;21.20;99.90
10312;DHT22;5201;48.776;9.128;2023-07-31T08:20:37;21.40;99.90
10312;DHT22;5201;48.776;9.128;2023-07-31T08:23:03;21.50;99.90
10312;DHT22;5201;48.776;9.128;2023-07-31T08:25:28;21.60;99.90
10312;DHT22;5201;48.776;9.128;2023-07-31T08:27:54;21.70;99.90
10312;DHT22;5201;48.776;9.128;2023-07-31T08:30:20;21.80;99.90
10312;DHT22;5201;48.776;9.128;2023-07-31T08:32:46;22.00;99.90
10312;DHT22;5201;48.776;9.128;2023-07-31T08:35:12;22.00;99.90
10312;DHT22;5201;48.776;9.128;2023-07-31T08:37:38;21.90;99.90
10312;DHT22;5201;48.776;9.128;2023-07-31T08:40:05;21.30;99.90
10312;DHT22;5201;48.776;9.128;2023-07-31T08:42:31;21.60;99.90
10312;DHT22;5201;48.776;9.128;2023-07-31T08:44:57;21.50;99.90
10312;DHT22;5201;48.776;9.128;2023-07-31T08:47:26;21.50;99.90
10312;DHT22;5201;48.776;9.128;2023-07-31T08:49:53;21.70;99.90
10312;DHT22;5201;48.776;9.128;2023-07-31T08:52:20;21.90;99.90
10312;DHT22;5201;48.776;9.128;2023-07-31T08:54:45;22.00;99.90
10312;DHT22;5201;48.776;9.128;2023-07-31T08:57:12;22.10;99.90
10312;DHT22;5201;48.776;9.128;2023-07-31T08:59:38;22.40;99.90
10312;DHT22;5201;48.776;9.128;2023-07-31T09:02:08;22.30;99.90
10312;DHT22;5201;48.776;9.128;2023-07-31T09:04:34;22.20;99.90
10312;DHT22;5201;48.776;9.128;2023-07-31T09:07:02;22.00;99.90
10312;DHT22;5201;48.776;9.128;2023-07-31T09:09:30;22.00;99.90
10312;DHT22;5201;48.776;9.128;2023-07-31T09:11:57;22.10;99.90
10312;DHT22;5201;48.776;9.128;2023-07-31T09:14:25;22.20;99.90
10312;DHT22;5201;48.776;9.128;2023-07-31T09:16:58;22.30;99.90
10312;DHT22;5201;48.776;9.128;2023-07-31T09:19:43;22.30;99.90
10312;DHT22;5201;48.776;9.128;2023-07-31T09:22:08;22.00;99.90
10312;DHT22;5201;48.776;9.128;2023-07-31T09:24:34;22.00;99.90
10312;DHT22;5201;48.776;9.128;2023-07-31T09:27:01;22.00;99.90
10312;DHT22;5201;48.776;9.128;2023-07-31T09:29:28;22.00;99.90
10312;DHT22;5201;48.776;9.128;2023-07-31T09:31:55;21.90;99.90
10312;DHT22;5201;48.776;9.128;2023-07-31T09:34:29;21.80;99.90
10312;DHT22;5201;48.776;9.128;2023-07-31T09:37:00;21.80;99.90
10312;DHT22;5201;48.776;9.128;2023-07-31T09:39:26;21.80;99.90
10312;DHT22;5201;48.776;9.128;2023-07-31T09:41:56;21.70;99.90
10312;DHT22;5201;48.776;9.128;2023-07-31T09:44:25;21.70;99.90
10312;DHT22;5201;48.776;9.128;2023-07-31T09:47:02;21.90;99.90
10312;DHT22;5201;48.776;9.128;2023-07-31T09:49:28;22.20;99.90
10312;DHT22;5201;48.776;9.128;2023-07-31T09:51:54;22.50;99.90
10312;DHT22;5201;48.776;9.128;2023-07-31T09:54:20;22.80;99.90
10312;DHT22;5201;48.776;9.128;2023-07-31T09:56:46;23.00;99.90
10312;DHT22;5201;48.776;9.128;2023-07-31T09:59:14;23.30;99.90
10312;DHT22;5201;48.776;9.128;2023-07-31T10:01:41;23.40;99.90
10312;DHT22;5201;48.776;9.128;2023-07-31T10:04:09;23.40;99.90
10312;DHT22;5201;48.776;9.128;2023-07-31T10:06:35;23.20;99.90
10312;DHT22;5201;48.776;9.128;2023-07-31T10:09:03;22.90;99.90
10312;DHT22;5201;48.776;9.128;2023-07-31T10:11:42;22.70;99.90
10312;DHT22;5201;48.776;9.128;2023-07-31T10:14:09;22.70;99.90
10312;DHT22;5201;48.776;9.128;2023-07-31T10:16:38;22.90;99.90
10312;DHT22;5201;48.776;9.128;2023-07-31T10:19:05;23.00;99.90
10312;DHT22;5201;48.776;9.128;2023-07-31T10:21:32;22.30;99.90
10312;DHT22;5201;48.776;9.128;2023-07-31T10:24:03;22.30;99.90
10312;DHT22;5201;48.776;9.128;2023-07-31T10:26:31;22.50;99.90
10312;DHT22;5201;48.776;9.128;2023-07-31T10:28:58;22.60;99.90
10312;DHT22;5201;48.776;9.128;2023-07-31T10:31:24;23.10;99.90
10312;DHT22;5201;48.776;9.128;2023-07-31T10:33:51;23.70;99.90
10312;DHT22;5201;48.776;9.128;2023-07-31T10:36:20;23.70;99.90
10312;DHT22;5201;48.776;9.128;2023-07-31T10:38:49;23.30;99.90
10312;DHT22;5201;48.776;9.128;2023-07-31T10:41:15;23.50;99.90
10312;DHT22;5201;48.776;9.128;2023-07-31T10:43:40;23.90;99.90
10312;DHT22;5201;48.776;9.128;2023-07-31T10:46:16;24.00;99.80
10312;DHT22;5201;48.776;9.128;2023-07-31T10:48:42;23.70;99.90
10312;DHT22;5201;48.776;9.128;2023-07-31T10:51:09;23.50;99.90
10312;DHT22;5201;48.776;9.128;2023-07-31T10:53:35;23.50;99.90
10312;DHT22;5201;48.776;9.128;2023-07-31T10:56:06;23.50;99.90
10312;DHT22;5201;48.776;9.128;2023-07-31T10:58:33;23.70;99.90
10312;DHT22;5201;48.776;9.128;2023-07-31T11:01:00;24.00;99.90
10312;DHT22;5201;48.776;9.128;2023-07-31T11:03:40;24.40;99.90
10312;DHT22;5201;48.776;9.128;2023-07-31T11:06:07;24.60;99.90
10312;DHT22;5201;48.776;9.128;2023-07-31T11:08:34;24.80;99.50
10312;DHT22;5201;48.776;9.128;2023-07-31T11:13:30;24.70;99.60
10312;DHT22;5201;48.776;9.128;2023-07-31T11:15:56;24.30;99.90
10312;DHT22;5201;48.776;9.128;2023-07-31T11:18:22;24.30;99.90
10312;DHT22;5201;48.776;9.128;2023-07-31T11:20:47;24.50;99.90
10312;DHT22;5201;48.776;9.128;2023-07-31T11:23:16;24.60;99.90
10312;DHT22;5201;48.776;9.128;2023-07-31T11:25:42;24.50;99.40
10312;DHT22;5201;48.776;9.128;2023-07-31T11:28:14;24.30;99.50
10312;DHT22;5201;48.776;9.128;2023-07-31T11:30:41;24.10;99.90
10312;DHT22;5201;48.776;9.128;2023-07-31T11:33:08;23.90;99.90
10312;DHT22;5201;48.776;9.128;2023-07-31T11:35:42;23.50;99.90
10312;DHT22;5201;48.776;9.128;2023-07-31T11:40:56;23.10;99.90
10312;DHT22;5201;48.776;9.128;2023-07-31T11:43:22;22.90;99.90
10312;DHT22;5201;48.776;9.128;2023-07-31T11:45:56;23.00;99.90
10312;DHT22;5201;48.776;9.128;2023-07-31T11:48:30;23.30;99.90
10312;DHT22;5201;48.776;9.128;2023-07-31T11:51:01;23.40;99.90
10312;DHT22;5201;48.776;9.128;2023-07-31T11:55:59;23.40;99.90
10312;DHT22;5201;48.776;9.128;2023-07-31T11:58:26;23.40;99.90
10312;DHT22;5201;48.776;9.128;2023-07-31T12:00:52;23.50;99.90
10312;DHT22;5201;48.776;9.128;2023-07-31T12:03:18;23.50;99.90
10312;DHT22;5201;48.776;9.128;2023-07-31T12:05:44;23.50;99.90
10312;DHT22;5201;48.776;9.128;2023-07-31T12:08:12;23.50;99.90
10312;DHT22;5201;48.776;9.128;2023-07-31T12:10:38;23.50;99.90
10312;DHT22;5201;48.776;9.128;2023-07-31T12:13:11;23.60;99.90
10312;DHT22;5201;48.776;9.128;2023-07-31T12:15:43;23.40;99.90
10312;DHT22;5201;48.776;9.128;2023-07-31T12:18:19;23.30;99.90
10312;DHT22;5201;48.776;9.128;2023-07-31T12:20:53;23.30;99.90
10312;DHT22;5201;48.776;9.128;2023-07-31T12:23:21;23.30;99.90
10312;DHT22;5201;48.776;9.128;2023-07-31T12:26:08;23.30;99.90
10312;DHT22;5201;48.776;9.128;2023-07-31T12:28:36;23.10;99.90
10312;DHT22;5201;48.776;9.128;2023-07-31T12:31:02;23.10;99.90
10312;DHT22;5201;48.776;9.128;2023-07-31T12:33:32;23.10;99.90
10312;DHT22;5201;48.776;9.128;2023-07-31T12:36:00;23.10;99.90
10312;DHT22;5201;48.776;9.128;2023-07-31T12:38:26;23.20;99.90
10312;DHT22;5201;48.776;9.128;2023-07-31T12:40:51;23.20;99.90
10312;DHT22;5201;48.776;9.128;2023-07-31T12:43:17;22.90;99.90
10312;DHT22;5201;48.776;9.128;2023-07-31T12:45:42;22.80;99.90
10312;DHT22;5201;48.776;9.128;2023-07-31T12:48:08;22.80;99.90
10312;DHT22;5201;48.776;9.128;2023-07-31T12:50:34;22.80;99.90
10312;DHT22;5201;48.776;9.128;2023-07-31T12:53:02;22.90;99.90
10312;DHT22;5201;48.776;9.128;2023-07-31T12:55:29;23.00;99.90
10312;DHT22;5201;48.776;9.128;2023-07-31T12:57:55;23.00;99.90
10312;DHT22;5201;48.776;9.128;2023-07-31T13:00:21;23.00;99.90
10312;DHT22;5201;48.776;9.128;2023-07-31T13:02:47;22.90;99.90
10312;DHT22;5201;48.776;9.128;2023-07-31T13:05:12;22.90;99.90
10312;DHT22;5201;48.776;9.128;2023-07-31T13:07:39;21.30;99.90
10312;DHT22;5201;48.776;9.128;2023-07-31T13:10:05;23.00;99.90
10312;DHT22;5201;48.776;9.128;2023-07-31T13:12:31;23.00;99.90
10312;DHT22;5201;48.776;9.128;2023-07-31T13:14:56;23.20;99.90
10312;DHT22;5201;48.776;9.128;2023-07-31T13:17:22;23.20;99.90
10312;DHT22;5201;48.776;9.128;2023-07-31T13:19:47;23.30;99.90
10312;DHT22;5201;48.776;9.128;2023-07-31T13:22:13;23.20;99.90
10312;DHT22;5201;48.776;9.128;2023-07-31T13:24:39;23.30;99.90
10312;DHT22;5201;48.776;9.128;2023-07-31T13:27:04;23.30;99.90
10312;DHT22;5201;48.776;9.128;2023-07-31T13:29:30;23.30;99.90
10312;DHT22;5201;48.776;9.128;2023-07-31T13:31:55;23.50;99.90
10312;DHT22;5201;48.776;9.128;2023-07-31T13:34:21;23.70;99.90
10312;DHT22;5201;48.776;9.128;2023-07-31T13:36:47;23.50;99.90
10312;DHT22;5201;48.776;9.128;2023-07-31T13:39:13;23.70;99.90
10312;DHT22;5201;48.776;9.128;2023-07-31T13:41:38;23.70;99.90
10312;DHT22;5201;48.776;9.128;2023-07-31T13:44:04;23.80;99.90
10312;DHT22;5201;48.776;9.128;2023-07-31T13:46:29;23.90;99.90
10312;DHT22;5201;48.776;9.128;2023-07-31T13:48:55;23.90;99.90
10312;DHT22;5201;48.776;9.128;2023-07-31T13:51:21;23.80;99.90
10312;DHT22;5201;48.776;9.128;2023-07-31T13:53:47;23.70;99.90
10312;DHT22;5201;48.776;9.128;2023-07-31T13:56:13;23.70;99.90
10312;DHT22;5201;48.776;9.128;2023-07-31T13:58:39;23.80;99.90
10312;DHT22;5201;48.776;9.128;2023-07-31T14:01:04;23.80;99.90
10312;DHT22;5201;48.776;9.128;2023-07-31T14:03:31;23.90;99.90
10312;DHT22;5201;48.776;9.128;2023-07-31T14:05:56;24.00;99.90
10312;DHT22;5201;48.776;9.128;2023-07-31T14:08:22;23.90;99.90
10312;DHT22;5201;48.776;9.128;2023-07-31T14:10:48;23.80;99.90
10312;DHT22;5201;48.776;9.128;2023-07-31T14:13:13;23.70;99.90
10312;DHT22;5201;48.776;9.128;2023-07-31T14:15:42;23.70;99.90
10312;DHT22;5201;48.776;9.128;2023-07-31T14:18:08;23.80;99.90
10312;DHT22;5201;48.776;9.128;2023-07-31T14:20:34;23.80;99.90
10312;DHT22;5201;48.776;9.128;2023-07-31T14:22:59;23.90;99.90
10312;DHT22;5201;48.776;9.128;2023-07-31T14:25:25;24.00;99.90
10312;DHT22;5201;48.776;9.128;2023-07-31T14:27:50;24.00;99.90
10312;DHT22;5201;48.776;9.128;2023-07-31T14:30:16;24.00;99.90
10312;DHT22;5201;48.776;9.128;2023-07-31T14:32:43;24.10;99.90
10312;DHT22;5201;48.776;9.128;2023-07-31T14:35:09;24.20;99.90
10312;DHT22;5201;48.776;9.128;2023-07-31T14:37:39;24.30;99.90
10312;DHT22;5201;48.776;9.128;2023-07-31T14:40:06;25.10;99.90
10312;DHT22;5201;48.776;9.128;2023-07-31T14:42:32;24.20;99.90
10312;DHT22;5201;48.776;9.128;2023-07-31T14:44:57;24.10;99.90
10312;DHT22;5201;48.776;9.128;2023-07-31T14:47:23;24.20;99.90
10312;DHT22;5201;48.776;9.128;2023-07-31T14:49:49;24.20;99.90
10312;DHT22;5201;48.776;9.128;2023-07-31T14:52:14;24.20;99.90
10312;DHT22;5201;48.776;9.128;2023-07-31T14:54:40;24.30;99.90
10312;DHT22;5201;48.776;9.128;2023-07-31T14:57:06;24.30;99.90
10312;DHT22;5201;48.776;9.128;2023-07-31T14:59:31;24.00;99.90
10312;DHT22;5201;48.776;9.128;2023-07-31T15:01:57;23.90;99.90
10312;DHT22;5201;48.776;9.128;2023-07-31T15:04:23;23.90;99.90
10312;DHT22;5201;48.776;9.128;2023-07-31T15:06:49;23.90;99.90
10312;DHT22;5201;48.776;9.128;2023-07-31T15:09:15;23.80;99.90
10312;DHT22;5201;48.776;9.128;2023-07-31T15:11:41;24.00;99.90
10312;DHT22;5201;48.776;9.128;2023-07-31T15:14:06;24.10;99.90
10312;DHT22;5201;48.776;9.128;2023-07-31T15:16:32;24.10;99.90
10312;DHT22;5201;48.776;9.128;2023-07-31T15:18:57;24.00;99.90
10312;DHT22;5201;48.776;9.128;2023-07-31T15:21:23;24.00;99.90
10312;DHT22;5201;48.776;9.128;2023-07-31T15:23:49;24.00;99.90
10312;DHT22;5201;48.776;9.128;2023-07-31T15:26:14;24.00;99.90
10312;DHT22;5201;48.776;9.128;2023-07-31T15:28:40;24.00;99.90
10312;DHT22;5201;48.776;9.128;2023-07-31T15:31:05;24.00;99.90
10312;DHT22;5201;48.776;9.128;2023-07-31T15:33:31;24.00;99.90
10312;DHT22;5201;48.776;9.128;2023-07-31T15:35:57;24.10;99.90
10312;DHT22;5201;48.776;9.128;2023-07-31T15:38:23;23.90;99.90
10312;DHT22;5201;48.776;9.128;2023-07-31T15:40:49;23.90;99.90
10312;DHT22;5201;48.776;9.128;2023-07-31T15:43:19;23.90;99.90
10312;DHT22;5201;48.776;9.128;2023-07-31T15:45:46;23.90;99.90
10312;DHT22;5201;48.776;9.128;2023-07-31T15:48:11;23.80;99.90
10312;DHT22;5201;48.776;9.128;2023-07-31T15:50:37;23.70;99.90
10312;DHT22;5201;48.776;9.128;2023-07-31T15:53:02;23.80;99.90
10312;DHT22;5201;48.776;9.128;2023-07-31T15:55:28;23.90;99.90